createdAt,value
2018-05-04T00:00:32.237Z,2.73
2018-05-04T00:03:00.465Z,3.20
2018-05-04T00:05:27.940Z,2.40
2018-05-04T00:07:55.404Z,2.67
2018-05-04T00:10:22.892Z,3.30
2018-05-04T00:12:51.134Z,2.80
2018-05-04T00:15:18.640Z,2.53
2018-05-04T00:17:46.095Z,3.13
2018-05-04T00:20:13.572Z,3.00
2018-05-04T00:22:41.036Z,2.77
2018-05-04T00:25:08.508Z,2.87
2018-05-04T00:27:35.964Z,3.17
2018-05-04T00:30:03.465Z,2.63
2018-05-04T00:32:31.723Z,3.43
2018-05-04T00:34:59.193Z,2.90
2018-05-04T00:37:27.400Z,2.70
2018-05-04T00:39:54.880Z,2.47
2018-05-04T00:42:22.336Z,2.80
2018-05-04T00:44:49.823Z,2.90
2018-05-04T00:47:17.264Z,2.93
2018-05-04T00:49:44.741Z,3.33
2018-05-04T00:52:12.974Z,3.10
2018-05-04T00:54:40.467Z,3.00
2018-05-04T00:57:08.690Z,2.90
2018-05-04T00:59:36.173Z,3.63
2018-05-04T01:02:03.789Z,3.30
2018-05-04T01:04:32.041Z,2.90
2018-05-04T01:07:00.268Z,3.50
2018-05-04T01:09:27.755Z,3.40
2018-05-04T01:11:55.240Z,3.60
2018-05-04T01:14:22.717Z,3.13
2018-05-04T01:16:50.174Z,3.70
2018-05-04T01:19:17.644Z,3.27
2018-05-04T01:21:45.104Z,3.17
2018-05-04T01:24:12.581Z,3.30
2018-05-04T01:26:40.046Z,4.13
2018-05-04T01:29:07.566Z,3.77
2018-05-04T01:31:35.014Z,3.50
2018-05-04T01:34:02.504Z,3.73
2018-05-04T01:36:29.969Z,3.37
2018-05-04T01:38:57.457Z,4.00
2018-05-04T01:41:25.680Z,3.73
2018-05-04T01:43:53.149Z,3.70
2018-05-04T01:46:20.600Z,3.40
2018-05-04T01:48:48.084Z,3.90
2018-05-04T01:51:15.559Z,3.93
2018-05-04T01:53:43.824Z,4.30
2018-05-04T01:56:12.061Z,3.70
2018-05-04T01:58:39.525Z,3.60
2018-05-04T02:01:07.008Z,4.03
2018-05-04T02:03:35.234Z,3.53
2018-05-04T02:06:02.713Z,4.43
2018-05-04T02:08:30.168Z,3.83
2018-05-04T02:10:57.648Z,3.67
2018-05-04T02:13:25.105Z,4.13
2018-05-04T02:15:53.352Z,4.00
2018-05-04T02:18:20.800Z,4.10
2018-05-04T02:20:48.278Z,4.63
2018-05-04T02:23:15.731Z,3.90
2018-05-04T02:25:43.200Z,3.90
2018-05-04T02:28:10.669Z,4.43
2018-05-04T02:30:38.919Z,3.90
2018-05-04T02:33:06.374Z,4.00
2018-05-04T02:35:33.859Z,4.47
2018-05-04T02:38:02.108Z,4.33
2018-05-04T02:40:29.557Z,4.30
2018-05-04T02:42:57.116Z,4.17
2018-05-04T02:45:24.585Z,4.30
2018-05-04T02:47:52.046Z,4.63
2018-05-04T02:50:19.515Z,4.40
2018-05-04T02:52:47.742Z,3.80
2018-05-04T02:55:15.219Z,5.07
2018-05-04T02:57:42.673Z,5.23
2018-05-04T03:00:10.153Z,5.10
2018-05-04T03:02:37.659Z,4.60
2018-05-04T03:05:05.221Z,5.40
2018-05-04T03:07:32.673Z,4.87
2018-05-04T03:10:00.161Z,5.40
2018-05-04T03:12:27.613Z,5.60
2018-05-04T03:14:55.090Z,5.50
2018-05-04T03:17:24.056Z,5.80
2018-05-04T03:19:51.532Z,4.97
2018-05-04T03:22:18.991Z,5.97
2018-05-04T03:24:46.448Z,5.73
2018-05-04T03:27:15.429Z,5.83
2018-05-04T03:29:42.884Z,5.50
2018-05-04T03:32:10.369Z,5.30
2018-05-04T03:34:38.593Z,5.97
2018-05-04T03:37:06.087Z,6.37
2018-05-04T03:39:33.548Z,5.47
2018-05-04T03:42:01.018Z,6.37
2018-05-04T03:44:29.252Z,6.30
2018-05-04T03:46:58.352Z,6.00
2018-05-04T03:49:25.808Z,6.33
2018-05-04T03:51:53.278Z,7.13
2018-05-04T03:54:22.254Z,8.03
2018-05-04T03:56:49.725Z,7.43
2018-05-04T03:59:29.121Z,6.83
2018-05-04T04:02:08.565Z,7.00
2018-05-04T04:04:36.024Z,7.50
2018-05-04T04:07:03.508Z,7.30
2018-05-04T04:09:30.964Z,7.33
2018-05-04T04:11:58.440Z,6.60
2018-05-04T04:14:26.675Z,7.87
2018-05-04T04:16:54.149Z,7.70
2018-05-04T04:19:21.618Z,8.00
2018-05-04T04:21:49.089Z,6.67
2018-05-04T04:24:17.403Z,7.63
2018-05-04T04:26:44.868Z,6.80
2018-05-04T04:29:12.326Z,7.70
2018-05-04T04:31:39.802Z,7.67
2018-05-04T04:34:07.330Z,7.27
2018-05-04T04:36:34.796Z,7.50
2018-05-04T04:39:02.253Z,7.93
2018-05-04T04:41:29.724Z,7.60
2018-05-04T04:43:57.190Z,8.50
2018-05-04T04:46:24.679Z,8.43
2018-05-04T04:48:52.904Z,8.03
2018-05-04T04:51:21.160Z,7.80
2018-05-04T04:53:48.676Z,8.17
2018-05-04T04:56:16.919Z,8.63
2018-05-04T04:58:44.384Z,8.13
2018-05-04T05:01:11.864Z,7.50
2018-05-04T05:03:40.106Z,8.47
2018-05-04T05:06:07.605Z,8.47
2018-05-04T05:08:35.821Z,6.83
2018-05-04T05:11:03.276Z,6.40
2018-05-04T05:13:30.792Z,6.80
2018-05-04T05:15:58.212Z,6.00
2018-05-04T05:18:25.684Z,6.60
2018-05-04T05:20:53.155Z,6.80
2018-05-04T05:23:20.620Z,7.07
2018-05-04T05:25:48.845Z,6.60
2018-05-04T05:28:16.386Z,6.50
2018-05-04T05:30:43.847Z,7.70
2018-05-04T05:33:11.323Z,6.60
2018-05-04T05:35:38.807Z,6.97
2018-05-04T05:38:06.273Z,7.07
2018-05-04T05:40:34.496Z,6.40
2018-05-04T05:43:01.971Z,6.67
2018-05-04T05:45:29.444Z,6.77
2018-05-04T05:47:56.930Z,6.90
2018-05-04T05:50:25.165Z,7.63
2018-05-04T05:52:52.637Z,7.57
2018-05-04T05:55:20.098Z,7.60
2018-05-04T05:57:47.606Z,7.53
2018-05-04T06:00:15.085Z,8.00
2018-05-04T06:02:42.560Z,8.10
2018-05-04T06:05:11.530Z,8.57
2018-05-04T06:07:39.013Z,8.00
2018-05-04T06:10:06.465Z,9.40
2018-05-04T06:12:33.956Z,9.50
2018-05-04T06:15:01.499Z,9.70
2018-05-04T06:17:28.892Z,9.90
2018-05-04T06:19:56.354Z,10.10
2018-05-04T06:22:23.836Z,10.70
2018-05-04T06:24:51.311Z,11.10
2018-05-04T06:27:18.815Z,11.13
2018-05-04T06:29:46.275Z,12.10
2018-05-04T06:32:13.760Z,10.50
2018-05-04T06:34:41.224Z,11.80
2018-05-04T06:37:08.709Z,11.63
2018-05-04T06:39:37.068Z,11.00
2018-05-04T06:42:05.352Z,11.00
2018-05-04T06:44:32.829Z,12.63
2018-05-04T06:47:00.313Z,11.50
2018-05-04T06:49:27.791Z,12.20
2018-05-04T06:51:55.286Z,12.10
2018-05-04T06:54:23.534Z,11.37
2018-05-04T06:56:50.992Z,12.30
2018-05-04T06:59:18.578Z,12.97
2018-05-04T07:01:46.011Z,11.73
2018-05-04T07:04:13.531Z,12.37
2018-05-04T07:06:40.986Z,12.30
2018-05-04T07:09:08.471Z,12.17
2018-05-04T07:11:35.941Z,11.80
2018-05-04T07:14:03.440Z,12.60
2018-05-04T07:16:30.906Z,12.40
2018-05-04T07:18:58.437Z,12.63
2018-05-04T07:21:26.669Z,13.20
2018-05-04T07:23:54.145Z,12.67
2018-05-04T07:26:21.620Z,11.63
2018-05-04T07:28:49.971Z,12.03
2018-05-04T07:31:17.350Z,12.47
2018-05-04T07:33:45.597Z,11.43
2018-05-04T07:36:13.061Z,12.27
2018-05-04T07:38:41.313Z,12.67
2018-05-04T07:41:08.781Z,12.07
2018-05-04T07:43:36.265Z,13.10
2018-05-04T07:46:03.741Z,11.73
2018-05-04T07:48:31.985Z,11.40
2018-05-04T07:50:59.445Z,11.47
2018-05-04T07:53:26.920Z,10.53
2018-05-04T07:55:55.153Z,13.07
2018-05-04T07:58:22.652Z,13.13
2018-05-04T08:00:50.893Z,11.10
2018-05-04T08:03:18.366Z,11.73
2018-05-04T08:05:45.821Z,11.70
2018-05-04T08:08:13.333Z,11.90
2018-05-04T08:10:40.798Z,12.10
2018-05-04T08:13:08.281Z,12.13
2018-05-04T08:15:35.748Z,11.87
2018-05-04T08:18:03.233Z,10.30
2018-05-04T08:20:31.463Z,12.20
2018-05-04T08:22:58.935Z,12.20
2018-05-04T08:25:26.405Z,11.43
2018-05-04T08:27:54.649Z,11.00
2018-05-04T08:30:22.124Z,10.40
2018-05-04T08:32:49.592Z,11.03
2018-05-04T08:35:17.934Z,11.17
2018-05-04T08:37:45.310Z,11.73
2018-05-04T08:40:12.770Z,12.10
2018-05-04T08:42:40.272Z,11.53
2018-05-04T08:45:07.739Z,9.67
2018-05-04T08:47:35.205Z,11.33
2018-05-04T08:50:02.697Z,11.60
2018-05-04T08:52:30.201Z,11.23
2018-05-04T08:54:57.676Z,11.00
2018-05-04T08:57:25.171Z,9.37
2018-05-04T08:59:52.614Z,10.20
2018-05-04T09:02:20.084Z,9.20
2018-05-04T09:04:47.586Z,8.73
2018-05-04T09:07:15.048Z,8.43
2018-05-04T09:09:42.522Z,9.00
2018-05-04T09:12:09.985Z,8.43
2018-05-04T09:14:37.459Z,7.80
2018-05-04T09:17:04.920Z,7.40
2018-05-04T09:19:32.404Z,7.20
2018-05-04T09:21:59.989Z,7.37
2018-05-04T09:24:27.476Z,6.77
2018-05-04T09:26:54.954Z,6.97
2018-05-04T09:29:22.457Z,7.33
2018-05-04T09:31:49.956Z,6.30
2018-05-04T09:34:17.433Z,5.90
2018-05-04T09:36:45.755Z,5.73
2018-05-04T09:39:13.241Z,5.77
2018-05-04T09:41:40.700Z,6.10
2018-05-04T09:44:08.177Z,5.50
2018-05-04T09:46:36.405Z,5.00
2018-05-04T09:49:03.948Z,5.37
2018-05-04T09:51:31.341Z,5.30
2018-05-04T09:53:59.605Z,4.90
2018-05-04T09:56:27.072Z,5.07
2018-05-04T09:58:54.557Z,5.30
2018-05-04T10:01:22.824Z,5.10
2018-05-04T10:03:50.332Z,5.67
2018-05-04T10:06:17.790Z,4.90
2018-05-04T10:08:45.343Z,4.90
2018-05-04T10:11:12.812Z,5.80
2018-05-04T10:13:40.289Z,6.03
2018-05-04T10:16:07.821Z,5.13
2018-05-04T10:18:35.229Z,5.53
2018-05-04T10:21:03.491Z,5.07
2018-05-04T10:23:30.976Z,5.30
2018-05-04T10:25:58.441Z,4.50
2018-05-04T10:28:25.908Z,5.00
2018-05-04T10:30:53.460Z,5.53
2018-05-04T10:33:20.849Z,5.13
2018-05-04T10:35:48.333Z,5.87
2018-05-04T10:38:15.819Z,4.80
2018-05-04T10:40:44.052Z,5.60
2018-05-04T10:43:11.580Z,4.90
2018-05-04T10:45:39.053Z,4.90
2018-05-04T10:48:06.535Z,4.83
2018-05-04T10:50:34.088Z,5.43
2018-05-04T10:53:01.557Z,5.30
2018-05-04T10:55:29.051Z,5.03
2018-05-04T10:57:56.510Z,5.70
2018-05-04T11:00:24.069Z,4.97
2018-05-04T11:02:51.627Z,5.40
2018-05-04T11:05:19.135Z,5.30
2018-05-04T11:07:46.612Z,6.20
2018-05-04T11:10:14.853Z,5.00
2018-05-04T11:12:42.312Z,5.30
2018-05-04T11:15:09.797Z,6.00
2018-05-04T11:17:38.028Z,5.10
2018-05-04T11:20:05.512Z,6.33
2018-05-04T11:22:32.989Z,5.93
2018-05-04T11:25:01.249Z,6.00
2018-05-04T11:27:28.720Z,6.30
2018-05-04T11:29:56.947Z,5.97
2018-05-04T11:32:24.417Z,5.23
2018-05-04T11:34:51.911Z,6.27
2018-05-04T11:37:20.133Z,5.23
2018-05-04T11:39:47.617Z,5.40
2018-05-04T11:42:15.099Z,5.17
2018-05-04T11:44:43.342Z,5.33
2018-05-04T11:47:10.817Z,5.87
2018-05-04T11:49:39.170Z,5.73
2018-05-04T11:52:06.644Z,6.20
2018-05-04T11:54:34.113Z,6.00
2018-05-04T11:57:02.341Z,5.90
2018-05-04T11:59:29.828Z,5.83
2018-05-04T12:01:57.280Z,6.40
2018-05-04T12:04:24.780Z,5.37
2018-05-04T12:06:52.240Z,6.30
2018-05-04T12:09:19.717Z,4.83
2018-05-04T12:11:47.178Z,4.83
2018-05-04T12:14:14.667Z,6.13
2018-05-04T12:16:42.275Z,5.23
2018-05-04T12:19:09.742Z,5.33
2018-05-04T12:21:37.293Z,5.77
2018-05-04T12:24:04.852Z,5.23
2018-05-04T12:26:32.315Z,5.13
2018-05-04T12:28:59.781Z,5.10
2018-05-04T12:31:27.278Z,5.23
2018-05-04T12:33:54.737Z,5.73
2018-05-04T12:36:22.980Z,5.70
2018-05-04T12:38:50.464Z,5.43
2018-05-04T12:41:17.940Z,5.03
2018-05-04T12:43:46.166Z,5.37
2018-05-04T12:46:13.630Z,4.80
2018-05-04T12:48:41.089Z,4.93
2018-05-04T12:51:08.573Z,5.10
2018-05-04T12:53:36.815Z,5.80
2018-05-04T12:56:04.286Z,4.80
2018-05-04T12:58:31.741Z,5.07
2018-05-04T13:00:59.223Z,4.90
2018-05-04T13:03:27.464Z,5.23
2018-05-04T13:05:54.986Z,4.83
2018-05-04T13:08:22.545Z,5.10
2018-05-04T13:10:50.017Z,4.87
2018-05-04T13:13:17.472Z,4.73
2018-05-04T13:15:44.960Z,4.83
2018-05-04T13:18:12.411Z,5.17
2018-05-04T13:20:39.927Z,5.27
2018-05-04T13:23:07.383Z,5.10
2018-05-04T13:25:34.942Z,5.57
2018-05-04T13:28:02.416Z,5.30
2018-05-04T13:30:29.905Z,5.50
2018-05-04T13:32:57.356Z,5.23
2018-05-04T13:35:24.869Z,5.33
2018-05-04T13:37:52.429Z,5.37
2018-05-04T13:40:19.945Z,5.43
2018-05-04T13:42:47.422Z,5.40
2018-05-04T13:45:14.899Z,4.90
2018-05-04T13:47:42.412Z,5.60
2018-05-04T13:50:09.987Z,4.93
2018-05-04T13:52:38.305Z,5.17
2018-05-04T13:55:05.832Z,4.73
2018-05-04T13:57:33.345Z,5.67
2018-05-04T14:00:00.834Z,5.40
2018-05-04T14:02:29.086Z,4.93
2018-05-04T14:04:56.567Z,5.77
2018-05-04T14:07:24.884Z,5.30
2018-05-04T14:09:53.256Z,5.10
2018-05-04T14:12:20.891Z,5.50
2018-05-04T14:14:49.140Z,5.10
2018-05-04T14:17:16.663Z,4.97
2018-05-04T14:19:45.062Z,5.23
2018-05-04T14:22:12.581Z,6.20
2018-05-04T14:24:40.594Z,5.37
2018-05-04T14:27:08.194Z,5.13
2018-05-04T14:29:35.682Z,5.70
2018-05-04T14:32:03.292Z,5.97
2018-05-04T14:34:30.912Z,6.20
2018-05-04T14:36:58.416Z,6.13
2018-05-04T14:39:26.674Z,5.43
2018-05-04T14:41:54.176Z,5.87
2018-05-04T14:44:21.629Z,5.60
2018-05-04T14:46:49.112Z,6.43
2018-05-04T14:49:16.581Z,5.80
2018-05-04T14:51:44.077Z,6.47
2018-05-04T14:54:12.324Z,5.30
2018-05-04T14:56:39.794Z,6.33
2018-05-04T14:59:08.040Z,5.33
2018-05-04T15:01:35.512Z,5.40
2018-05-04T15:04:03.054Z,5.70
2018-05-04T15:06:32.065Z,6.13
2018-05-04T15:08:59.733Z,6.40
2018-05-04T15:11:28.025Z,6.03
2018-05-04T15:13:57.045Z,5.63
2018-05-04T15:16:25.448Z,6.07
2018-05-04T15:18:54.494Z,6.50
2018-05-04T15:21:22.752Z,5.13
2018-05-04T15:23:50.988Z,5.70
2018-05-04T15:26:18.937Z,5.60
2018-05-04T15:28:47.217Z,5.60
2018-05-04T15:31:14.694Z,6.33
2018-05-04T15:33:42.748Z,6.47
2018-05-04T15:36:10.597Z,6.40
2018-05-04T15:38:38.167Z,6.80
2018-05-04T15:41:05.657Z,5.90
2018-05-04T15:43:33.131Z,5.40
2018-05-04T15:46:00.626Z,5.23
2018-05-04T15:48:34.493Z,6.53
2018-05-04T15:51:07.789Z,5.77
2018-05-04T15:53:35.395Z,6.73
2018-05-04T15:56:02.852Z,7.17
2018-05-04T16:01:03.837Z,5.90
2018-05-04T16:03:31.329Z,5.50
2018-05-04T16:05:59.560Z,5.10
2018-05-04T16:08:27.026Z,5.40
2018-05-04T16:10:54.513Z,5.40
2018-05-04T16:13:22.737Z,5.87
2018-05-04T16:15:50.222Z,6.50
2018-05-04T16:18:17.761Z,6.30
2018-05-04T16:20:45.212Z,5.20
2018-05-04T16:23:12.704Z,7.43
2018-05-04T16:25:40.168Z,8.27
2018-05-04T16:28:07.631Z,7.53
2018-05-04T16:30:35.881Z,7.80
2018-05-04T16:33:03.401Z,6.50
2018-05-04T16:35:30.884Z,6.40
2018-05-04T16:37:58.352Z,5.80
2018-05-04T16:40:25.845Z,5.53
2018-05-04T16:42:53.319Z,6.40
2018-05-04T16:45:20.782Z,6.00
2018-05-04T16:47:54.038Z,6.00
2018-05-04T16:50:22.270Z,6.60
2018-05-04T16:52:49.738Z,6.63
2018-05-04T16:55:17.233Z,6.60
2018-05-04T16:57:45.473Z,6.53
2018-05-04T17:00:12.945Z,6.10
2018-05-04T17:02:40.424Z,5.60
2018-05-04T17:05:07.905Z,6.30
2018-05-04T17:07:35.368Z,5.47
2018-05-04T17:10:02.844Z,5.73
2018-05-04T17:12:30.330Z,5.40
2018-05-04T17:14:57.795Z,6.07
2018-05-04T17:17:26.053Z,6.43
2018-05-04T17:19:53.533Z,5.33
2018-05-04T17:22:21.778Z,5.67
2018-05-04T17:24:49.248Z,5.77
2018-05-04T17:27:17.569Z,5.77
2018-05-04T17:29:45.034Z,6.00
2018-05-04T17:32:12.493Z,6.07
2018-05-04T17:34:39.999Z,6.03
2018-05-04T17:37:07.458Z,5.80
2018-05-04T17:39:34.954Z,5.07
2018-05-04T17:42:02.427Z,5.60
2018-05-04T17:44:29.889Z,5.73
2018-05-04T17:46:57.372Z,6.13
2018-05-04T17:49:24.875Z,6.50
2018-05-04T17:51:52.343Z,5.83
2018-05-04T17:54:19.805Z,6.00
2018-05-04T17:56:47.300Z,5.67
2018-05-04T17:59:14.771Z,5.63
2018-05-04T18:01:43.031Z,5.23
2018-05-04T18:04:12.013Z,5.20
2018-05-04T18:06:41.004Z,6.40
2018-05-04T18:09:08.493Z,5.00
2018-05-04T18:11:36.799Z,5.70
2018-05-04T18:14:04.281Z,5.50
2018-05-04T18:16:31.755Z,5.77
2018-05-04T18:18:59.227Z,6.60
2018-05-04T18:21:27.476Z,6.63
2018-05-04T18:23:54.964Z,7.03
2018-05-04T18:26:22.427Z,6.97
2018-05-04T18:28:50.686Z,6.50
2018-05-04T18:31:18.148Z,6.20
2018-05-04T18:33:45.645Z,6.67
2018-05-04T18:36:13.128Z,7.07
2018-05-04T18:38:40.613Z,7.40
2018-05-04T18:41:08.064Z,6.20
2018-05-04T18:43:35.580Z,6.67
2018-05-04T18:46:03.047Z,6.80
2018-05-04T18:48:30.533Z,6.67
2018-05-04T18:50:58.015Z,6.50
2018-05-04T18:53:26.261Z,7.30
2018-05-04T18:55:53.724Z,7.80
2018-05-04T18:58:21.210Z,7.23
2018-05-04T19:00:48.685Z,6.70
2018-05-04T19:03:22.709Z,6.93
2018-05-04T19:05:50.197Z,7.27
2018-05-04T19:08:17.673Z,6.50
2018-05-04T19:10:45.925Z,6.67
2018-05-04T19:13:13.387Z,7.03
2018-05-04T19:15:40.848Z,7.97
2018-05-04T19:18:08.360Z,6.63
2018-05-04T19:20:35.839Z,6.43
2018-05-04T19:23:03.323Z,6.77
2018-05-04T19:25:30.808Z,6.90
2018-05-04T19:27:58.274Z,7.23
2018-05-04T19:30:25.732Z,7.30
2018-05-04T19:32:53.269Z,7.30
2018-05-04T19:35:21.490Z,7.13
2018-05-04T19:37:48.958Z,7.67
2018-05-04T19:40:16.446Z,6.80
2018-05-04T19:42:44.704Z,7.60
2018-05-04T19:45:14.261Z,7.03
2018-05-04T19:47:41.744Z,7.20
2018-05-04T19:50:09.284Z,6.63
2018-05-04T19:52:36.852Z,6.97
2018-05-04T19:55:04.232Z,7.00
2018-05-04T19:57:31.718Z,6.60
2018-05-04T19:59:59.986Z,6.43
2018-05-04T20:02:27.441Z,7.33
2018-05-04T20:04:54.917Z,6.90
2018-05-04T20:07:23.175Z,6.70
2018-05-04T20:09:50.647Z,6.90
2018-05-04T20:12:18.894Z,7.10
2018-05-04T20:14:46.378Z,6.27
2018-05-04T20:17:14.609Z,6.60
2018-05-04T20:19:42.069Z,6.30
2018-05-04T20:22:09.555Z,6.30
2018-05-04T20:24:37.794Z,7.23
2018-05-04T20:27:05.307Z,7.17
2018-05-04T20:29:32.793Z,7.30
2018-05-04T20:32:00.271Z,7.30
2018-05-04T20:34:27.740Z,6.00
2018-05-04T20:36:55.252Z,6.27
2018-05-04T20:39:22.718Z,7.17
2018-05-04T20:41:50.186Z,6.43
2018-05-04T20:44:17.677Z,7.53
2018-05-04T20:46:45.164Z,6.23
2018-05-04T20:49:12.737Z,6.10
2018-05-04T20:51:40.237Z,6.53
2018-05-04T20:54:07.705Z,6.97
2018-05-04T20:56:35.208Z,7.10
2018-05-04T20:59:02.674Z,8.33
2018-05-04T21:01:30.159Z,7.40
2018-05-04T21:03:57.638Z,6.47
2018-05-04T21:06:25.894Z,6.20
2018-05-04T21:08:53.365Z,5.80
2018-05-04T21:11:20.838Z,6.57
2018-05-04T21:13:49.080Z,5.53
2018-05-04T21:16:16.564Z,6.43
2018-05-04T21:18:46.288Z,6.10
2018-05-04T21:21:14.653Z,6.13
2018-05-04T21:23:42.962Z,6.73
2018-05-04T21:26:10.436Z,6.80
2018-05-04T21:28:37.930Z,6.07
2018-05-04T21:31:05.390Z,6.57
2018-05-04T21:33:32.888Z,6.80
2018-05-04T21:36:00.534Z,6.03
2018-05-04T21:38:28.010Z,6.30
2018-05-04T21:40:55.570Z,6.97
2018-05-04T21:43:23.033Z,6.77
2018-05-04T21:45:50.522Z,6.60
2018-05-04T21:48:17.996Z,6.33
2018-05-04T21:50:46.237Z,6.70
2018-05-04T21:53:13.698Z,6.07
2018-05-04T21:55:41.195Z,6.77
2018-05-04T21:58:09.412Z,7.00
2018-05-04T22:00:36.876Z,5.90
2018-05-04T22:03:04.365Z,6.43
2018-05-04T22:05:31.869Z,5.80
2018-05-04T22:07:59.328Z,6.40
2018-05-04T22:10:26.888Z,6.10
2018-05-04T22:12:54.362Z,5.90
2018-05-04T22:15:21.842Z,6.50
2018-05-04T22:17:49.305Z,6.00
2018-05-04T22:20:16.772Z,7.33
2018-05-04T22:22:45.017Z,6.40
2018-05-04T22:25:12.501Z,6.83
2018-05-04T22:27:39.957Z,6.40
2018-05-04T22:30:08.209Z,6.50
2018-05-04T22:32:35.686Z,7.50
2018-05-04T22:35:03.145Z,6.70
2018-05-04T22:37:31.408Z,6.20
2018-05-04T22:39:58.876Z,6.17
2018-05-04T22:42:26.337Z,6.10
2018-05-04T22:44:54.589Z,7.00
2018-05-04T22:47:22.044Z,5.93
2018-05-04T22:49:51.013Z,6.60
2018-05-04T22:52:18.494Z,6.63
2018-05-04T22:54:46.732Z,6.43
2018-05-04T22:57:14.213Z,6.20
2018-05-04T22:59:41.668Z,6.37
2018-05-04T23:02:09.153Z,6.90
2018-05-04T23:04:36.609Z,6.90
2018-05-04T23:07:04.061Z,6.67
2018-05-04T23:09:31.552Z,7.37
2018-05-04T23:11:59.031Z,6.70
2018-05-04T23:14:26.490Z,6.27
2018-05-04T23:16:53.961Z,7.00
2018-05-04T23:19:21.422Z,6.93
2018-05-04T23:21:48.917Z,6.47
2018-05-04T23:24:17.137Z,7.50
2018-05-04T23:26:44.602Z,7.50
2018-05-04T23:29:12.100Z,7.33
2018-05-04T23:31:39.568Z,7.17
2018-05-04T23:34:09.609Z,6.77
2018-05-04T23:36:37.101Z,7.50
2018-05-04T23:39:04.574Z,7.17
2018-05-04T23:41:32.053Z,7.63
2018-05-04T23:44:00.289Z,7.17
2018-05-04T23:46:27.781Z,7.80
2018-05-04T23:48:56.001Z,7.13
2018-05-04T23:51:23.481Z,7.20
2018-05-04T23:53:50.962Z,7.63
2018-05-04T23:56:19.188Z,8.27
2018-05-04T23:58:46.649Z,7.83
